sensor_id;sensor_type;location;lat;lon;timestamp;P1;durP1;ratioP1;P2;durP2;ratioP2
12129;SDS011;6128;59.340;18.040;2023-09-30T00:02:27;8.50;;;6.43;;
12129;SDS011;6128;59.340;18.040;2023-09-30T00:04:55;7.73;;;5.90;;
12129;SDS011;6128;59.340;18.040;2023-09-30T00:07:22;8.37;;;6.07;;
12129;SDS011;6128;59.340;18.040;2023-09-30T00:09:50;8.80;;;6.03;;
12129;SDS011;6128;59.340;18.040;2023-09-30T00:12:17;7.60;;;5.63;;
12129;SDS011;6128;59.340;18.040;2023-09-30T00:14:44;10.20;;;6.00;;
12129;SDS011;6128;59.340;18.040;2023-09-30T00:17:13;6.63;;;5.33;;
12129;SDS011;6128;59.340;18.040;2023-09-30T00:19:42;7.93;;;5.80;;
12129;SDS011;6128;59.340;18.040;2023-09-30T00:22:10;9.80;;;6.10;;
12129;SDS011;6128;59.340;18.040;2023-09-30T00:24:37;6.77;;;5.93;;
12129;SDS011;6128;59.340;18.040;2023-09-30T00:27:04;8.33;;;6.00;;
12129;SDS011;6128;59.340;18.040;2023-09-30T00:29:31;7.00;;;6.00;;
12129;SDS011;6128;59.340;18.040;2023-09-30T00:31:58;8.57;;;5.83;;
12129;SDS011;6128;59.340;18.040;2023-09-30T00:34:25;7.73;;;5.70;;
12129;SDS011;6128;59.340;18.040;2023-09-30T00:36:54;10.10;;;6.47;;
12129;SDS011;6128;59.340;18.040;2023-09-30T00:39:21;7.97;;;5.97;;
12129;SDS011;6128;59.340;18.040;2023-09-30T00:41:48;6.23;;;5.30;;
12129;SDS011;6128;59.340;18.040;2023-09-30T00:44:15;6.53;;;5.07;;
12129;SDS011;6128;59.340;18.040;2023-09-30T00:46:42;8.47;;;5.70;;
12129;SDS011;6128;59.340;18.040;2023-09-30T00:49:09;8.97;;;5.47;;
12129;SDS011;6128;59.340;18.040;2023-09-30T00:51:36;7.27;;;5.07;;
12129;SDS011;6128;59.340;18.040;2023-09-30T00:54:06;5.53;;;5.00;;
12129;SDS011;6128;59.340;18.040;2023-09-30T00:56:34;5.33;;;4.57;;
12129;SDS011;6128;59.340;18.040;2023-09-30T00:59:09;5.97;;;4.37;;
12129;SDS011;6128;59.340;18.040;2023-09-30T01:01:36;4.80;;;4.00;;
12129;SDS011;6128;59.340;18.040;2023-09-30T01:04:04;5.43;;;3.80;;
12129;SDS011;6128;59.340;18.040;2023-09-30T01:06:31;4.47;;;3.73;;
12129;SDS011;6128;59.340;18.040;2023-09-30T01:08:58;6.60;;;3.30;;
12129;SDS011;6128;59.340;18.040;2023-09-30T01:11:27;3.53;;;3.23;;
12129;SDS011;6128;59.340;18.040;2023-09-30T01:13:54;3.93;;;3.30;;
12129;SDS011;6128;59.340;18.040;2023-09-30T01:16:22;3.57;;;2.77;;
12129;SDS011;6128;59.340;18.040;2023-09-30T01:18:49;3.70;;;2.80;;
12129;SDS011;6128;59.340;18.040;2023-09-30T01:21:17;4.03;;;2.87;;
12129;SDS011;6128;59.340;18.040;2023-09-30T01:23:46;3.07;;;2.70;;
12129;SDS011;6128;59.340;18.040;2023-09-30T01:26:13;3.20;;;2.63;;
12129;SDS011;6128;59.340;18.040;2023-09-30T01:28:40;3.43;;;2.40;;
12129;SDS011;6128;59.340;18.040;2023-09-30T01:31:07;3.37;;;2.40;;
12129;SDS011;6128;59.340;18.040;2023-09-30T01:33:34;2.50;;;2.30;;
12129;SDS011;6128;59.340;18.040;2023-09-30T01:36:01;3.23;;;1.97;;
12129;SDS011;6128;59.340;18.040;2023-09-30T01:38:29;3.03;;;1.90;;
12129;SDS011;6128;59.340;18.040;2023-09-30T01:40:57;3.57;;;2.40;;
12129;SDS011;6128;59.340;18.040;2023-09-30T01:43:25;1.50;;;1.40;;
12129;SDS011;6128;59.340;18.040;2023-09-30T01:45:52;2.80;;;1.43;;
12129;SDS011;6128;59.340;18.040;2023-09-30T01:48:19;2.03;;;1.30;;
12129;SDS011;6128;59.340;18.040;2023-09-30T01:50:46;1.60;;;1.40;;
12129;SDS011;6128;59.340;18.040;2023-09-30T01:53:13;3.17;;;1.20;;
12129;SDS011;6128;59.340;18.040;2023-09-30T01:55:40;1.73;;;1.23;;
12129;SDS011;6128;59.340;18.040;2023-09-30T01:58:09;1.80;;;1.03;;
12129;SDS011;6128;59.340;18.040;2023-09-30T02:00:36;2.70;;;1.30;;
12129;SDS011;6128;59.340;18.040;2023-09-30T02:03:03;2.00;;;1.17;;
12129;SDS011;6128;59.340;18.040;2023-09-30T02:05:30;2.30;;;1.30;;
12129;SDS011;6128;59.340;18.040;2023-09-30T02:07:57;2.50;;;1.10;;
12129;SDS011;6128;59.340;18.040;2023-09-30T02:10:24;1.63;;;1.50;;
12129;SDS011;6128;59.340;18.040;2023-09-30T02:12:51;1.50;;;1.20;;
12129;SDS011;6128;59.340;18.040;2023-09-30T02:15:20;2.23;;;1.47;;
12129;SDS011;6128;59.340;18.040;2023-09-30T02:17:47;2.57;;;1.47;;
12129;SDS011;6128;59.340;18.040;2023-09-30T02:20:14;3.03;;;1.50;;
12129;SDS011;6128;59.340;18.040;2023-09-30T02:22:44;3.07;;;1.73;;
12129;SDS011;6128;59.340;18.040;2023-09-30T02:25:12;2.73;;;1.57;;
12129;SDS011;6128;59.340;18.040;2023-09-30T02:27:41;2.93;;;1.50;;
12129;SDS011;6128;59.340;18.040;2023-09-30T02:30:09;2.27;;;1.40;;
12129;SDS011;6128;59.340;18.040;2023-09-30T02:32:39;2.97;;;1.50;;
12129;SDS011;6128;59.340;18.040;2023-09-30T02:35:07;3.57;;;1.70;;
12129;SDS011;6128;59.340;18.040;2023-09-30T02:37:36;3.57;;;1.77;;
12129;SDS011;6128;59.340;18.040;2023-09-30T02:40:04;4.63;;;1.93;;
12129;SDS011;6128;59.340;18.040;2023-09-30T02:42:34;3.77;;;1.87;;
12129;SDS011;6128;59.340;18.040;2023-09-30T02:45:03;3.23;;;1.73;;
12129;SDS011;6128;59.340;18.040;2023-09-30T02:47:31;4.30;;;1.60;;
12129;SDS011;6128;59.340;18.040;2023-09-30T02:50:00;2.83;;;1.67;;
12129;SDS011;6128;59.340;18.040;2023-09-30T02:52:29;3.20;;;1.70;;
12129;SDS011;6128;59.340;18.040;2023-09-30T02:54:57;3.47;;;1.77;;
12129;SDS011;6128;59.340;18.040;2023-09-30T02:57:24;4.40;;;2.13;;
12129;SDS011;6128;59.340;18.040;2023-09-30T02:59:52;3.20;;;1.80;;
12129;SDS011;6128;59.340;18.040;2023-09-30T03:02:21;3.70;;;1.87;;
12129;SDS011;6128;59.340;18.040;2023-09-30T03:04:48;3.67;;;1.67;;
12129;SDS011;6128;59.340;18.040;2023-09-30T03:07:19;4.57;;;2.07;;
12129;SDS011;6128;59.340;18.040;2023-09-30T03:09:46;3.37;;;1.97;;
12129;SDS011;6128;59.340;18.040;2023-09-30T03:12:15;6.03;;;2.27;;
12129;SDS011;6128;59.340;18.040;2023-09-30T03:14:43;3.03;;;1.80;;
12129;SDS011;6128;59.340;18.040;2023-09-30T03:17:16;4.90;;;2.00;;
12129;SDS011;6128;59.340;18.040;2023-09-30T03:19:54;5.33;;;2.43;;
12129;SDS011;6128;59.340;18.040;2023-09-30T03:22:26;3.83;;;1.83;;
12129;SDS011;6128;59.340;18.040;2023-09-30T03:24:54;3.13;;;1.63;;
12129;SDS011;6128;59.340;18.040;2023-09-30T03:27:23;4.63;;;1.90;;
12129;SDS011;6128;59.340;18.040;2023-09-30T03:30:01;3.30;;;1.90;;
12129;SDS011;6128;59.340;18.040;2023-09-30T03:32:30;4.50;;;1.97;;
12129;SDS011;6128;59.340;18.040;2023-09-30T03:34:58;4.10;;;2.10;;
12129;SDS011;6128;59.340;18.040;2023-09-30T03:37:27;4.80;;;2.10;;
12129;SDS011;6128;59.340;18.040;2023-09-30T03:39:56;3.47;;;1.87;;
12129;SDS011;6128;59.340;18.040;2023-09-30T03:42:23;4.80;;;2.37;;
12129;SDS011;6128;59.340;18.040;2023-09-30T03:44:51;3.77;;;2.07;;
12129;SDS011;6128;59.340;18.040;2023-09-30T03:47:18;5.63;;;2.07;;
12129;SDS011;6128;59.340;18.040;2023-09-30T03:49:46;5.30;;;2.03;;
12129;SDS011;6128;59.340;18.040;2023-09-30T03:52:14;4.80;;;2.63;;
12129;SDS011;6128;59.340;18.040;2023-09-30T03:54:42;4.70;;;2.17;;
12129;SDS011;6128;59.340;18.040;2023-09-30T03:57:09;3.83;;;2.40;;
12129;SDS011;6128;59.340;18.040;2023-09-30T03:59:38;4.80;;;2.40;;
12129;SDS011;6128;59.340;18.040;2023-09-30T04:02:05;5.40;;;2.47;;
12129;SDS011;6128;59.340;18.040;2023-09-30T04:04:33;5.47;;;2.37;;
12129;SDS011;6128;59.340;18.040;2023-09-30T04:07:02;4.87;;;2.73;;
12129;SDS011;6128;59.340;18.040;2023-09-30T04:09:30;5.60;;;2.50;;
12129;SDS011;6128;59.340;18.040;2023-09-30T04:11:59;5.30;;;2.50;;
12129;SDS011;6128;59.340;18.040;2023-09-30T04:14:26;5.90;;;2.73;;
12129;SDS011;6128;59.340;18.040;2023-09-30T04:16:54;5.90;;;2.70;;
12129;SDS011;6128;59.340;18.040;2023-09-30T04:19:21;7.30;;;3.10;;
12129;SDS011;6128;59.340;18.040;2023-09-30T04:21:48;6.33;;;2.77;;
12129;SDS011;6128;59.340;18.040;2023-09-30T04:24:15;6.00;;;3.00;;
12129;SDS011;6128;59.340;18.040;2023-09-30T04:26:44;9.07;;;3.00;;
12129;SDS011;6128;59.340;18.040;2023-09-30T04:29:12;6.07;;;2.83;;
12129;SDS011;6128;59.340;18.040;2023-09-30T04:31:39;5.80;;;3.53;;
12129;SDS011;6128;59.340;18.040;2023-09-30T04:34:07;7.37;;;3.23;;
12129;SDS011;6128;59.340;18.040;2023-09-30T04:36:34;5.87;;;2.63;;
12129;SDS011;6128;59.340;18.040;2023-09-30T04:39:01;6.57;;;2.90;;
12129;SDS011;6128;59.340;18.040;2023-09-30T04:41:29;6.40;;;3.30;;
12129;SDS011;6128;59.340;18.040;2023-09-30T04:43:56;6.03;;;3.27;;
12129;SDS011;6128;59.340;18.040;2023-09-30T04:46:25;7.17;;;2.80;;
12129;SDS011;6128;59.340;18.040;2023-09-30T04:48:53;8.30;;;3.20;;
12129;SDS011;6128;59.340;18.040;2023-09-30T04:51:19;8.27;;;3.80;;
12129;SDS011;6128;59.340;18.040;2023-09-30T04:53:47;7.47;;;2.80;;
12129;SDS011;6128;59.340;18.040;2023-09-30T04:56:13;8.33;;;3.17;;
12129;SDS011;6128;59.340;18.040;2023-09-30T04:58:41;8.27;;;4.03;;
12129;SDS011;6128;59.340;18.040;2023-09-30T05:01:09;5.17;;;2.80;;
12129;SDS011;6128;59.340;18.040;2023-09-30T05:03:38;6.33;;;3.20;;
12129;SDS011;6128;59.340;18.040;2023-09-30T05:06:05;8.30;;;3.60;;
12129;SDS011;6128;59.340;18.040;2023-09-30T05:08:33;7.07;;;3.33;;
12129;SDS011;6128;59.340;18.040;2023-09-30T05:11:00;8.53;;;3.60;;
12129;SDS011;6128;59.340;18.040;2023-09-30T05:13:28;8.10;;;3.43;;
12129;SDS011;6128;59.340;18.040;2023-09-30T05:15:55;6.23;;;3.17;;
12129;SDS011;6128;59.340;18.040;2023-09-30T05:18:22;6.83;;;3.47;;
12129;SDS011;6128;59.340;18.040;2023-09-30T05:20:50;7.57;;;3.50;;
12129;SDS011;6128;59.340;18.040;2023-09-30T05:23:17;5.93;;;3.87;;
12129;SDS011;6128;59.340;18.040;2023-09-30T05:25:44;6.63;;;3.13;;
12129;SDS011;6128;59.340;18.040;2023-09-30T05:28:11;8.57;;;3.63;;
12129;SDS011;6128;59.340;18.040;2023-09-30T05:30:39;5.80;;;2.90;;
12129;SDS011;6128;59.340;18.040;2023-09-30T05:33:06;8.50;;;3.43;;
12129;SDS011;6128;59.340;18.040;2023-09-30T05:35:38;7.53;;;3.03;;
12129;SDS011;6128;59.340;18.040;2023-09-30T05:38:07;6.97;;;2.70;;
12129;SDS011;6128;59.340;18.040;2023-09-30T05:40:35;7.83;;;3.43;;
12129;SDS011;6128;59.340;18.040;2023-09-30T05:43:02;7.40;;;3.07;;
12129;SDS011;6128;59.340;18.040;2023-09-30T05:45:31;8.57;;;3.07;;
12129;SDS011;6128;59.340;18.040;2023-09-30T05:48:01;7.20;;;3.27;;
12129;SDS011;6128;59.340;18.040;2023-09-30T05:50:28;7.27;;;2.50;;
12129;SDS011;6128;59.340;18.040;2023-09-30T05:52:56;8.80;;;3.53;;
12129;SDS011;6128;59.340;18.040;2023-09-30T05:55:25;6.93;;;3.03;;
12129;SDS011;6128;59.340;18.040;2023-09-30T05:57:53;8.07;;;3.20;;
12129;SDS011;6128;59.340;18.040;2023-09-30T06:00:20;5.97;;;2.73;;
12129;SDS011;6128;59.340;18.040;2023-09-30T06:02:47;6.60;;;2.83;;
12129;SDS011;6128;59.340;18.040;2023-09-30T06:05:16;7.20;;;2.90;;
12129;SDS011;6128;59.340;18.040;2023-09-30T06:07:44;7.63;;;2.67;;
12129;SDS011;6128;59.340;18.040;2023-09-30T06:10:12;8.30;;;3.23;;
12129;SDS011;6128;59.340;18.040;2023-09-30T06:12:45;9.53;;;3.57;;
12129;SDS011;6128;59.340;18.040;2023-09-30T06:15:12;7.17;;;2.90;;
12129;SDS011;6128;59.340;18.040;2023-09-30T06:17:40;6.63;;;2.67;;
12129;SDS011;6128;59.340;18.040;2023-09-30T06:20:08;8.07;;;3.10;;
12129;SDS011;6128;59.340;18.040;2023-09-30T06:22:41;7.03;;;2.73;;
12129;SDS011;6128;59.340;18.040;2023-09-30T06:25:10;7.73;;;3.23;;
12129;SDS011;6128;59.340;18.040;2023-09-30T06:27:38;5.80;;;2.67;;
12129;SDS011;6128;59.340;18.040;2023-09-30T06:30:07;7.00;;;2.77;;
12129;SDS011;6128;59.340;18.040;2023-09-30T06:32:35;5.43;;;2.20;;
12129;SDS011;6128;59.340;18.040;2023-09-30T06:35:02;6.90;;;3.03;;
12129;SDS011;6128;59.340;18.040;2023-09-30T06:37:31;6.97;;;2.63;;
12129;SDS011;6128;59.340;18.040;2023-09-30T06:39:58;5.53;;;2.87;;
12129;SDS011;6128;59.340;18.040;2023-09-30T06:42:30;7.50;;;2.80;;
12129;SDS011;6128;59.340;18.040;2023-09-30T06:44:57;7.90;;;2.63;;
12129;SDS011;6128;59.340;18.040;2023-09-30T06:47:25;7.73;;;3.00;;
12129;SDS011;6128;59.340;18.040;2023-09-30T06:49:53;7.67;;;2.67;;
12129;SDS011;6128;59.340;18.040;2023-09-30T06:52:19;10.37;;;3.87;;
12129;SDS011;6128;59.340;18.040;2023-09-30T06:54:46;6.17;;;2.50;;
12129;SDS011;6128;59.340;18.040;2023-09-30T06:57:13;7.07;;;2.70;;
12129;SDS011;6128;59.340;18.040;2023-09-30T06:59:40;9.90;;;2.40;;
12129;SDS011;6128;59.340;18.040;2023-09-30T07:02:07;6.13;;;2.80;;
12129;SDS011;6128;59.340;18.040;2023-09-30T07:04:36;7.77;;;2.97;;
12129;SDS011;6128;59.340;18.040;2023-09-30T07:07:03;7.50;;;2.93;;
12129;SDS011;6128;59.340;18.040;2023-09-30T07:09:30;7.17;;;2.70;;
12129;SDS011;6128;59.340;18.040;2023-09-30T07:11:57;7.90;;;2.57;;
12129;SDS011;6128;59.340;18.040;2023-09-30T07:14:25;6.30;;;2.73;;
12129;SDS011;6128;59.340;18.040;2023-09-30T07:16:52;9.63;;;3.13;;
12129;SDS011;6128;59.340;18.040;2023-09-30T07:19:19;8.93;;;2.83;;
12129;SDS011;6128;59.340;18.040;2023-09-30T07:21:48;9.50;;;2.90;;
12129;SDS011;6128;59.340;18.040;2023-09-30T07:24:15;9.30;;;2.80;;
12129;SDS011;6128;59.340;18.040;2023-09-30T07:26:42;8.23;;;2.60;;
12129;SDS011;6128;59.340;18.040;2023-09-30T07:29:09;6.30;;;2.80;;
12129;SDS011;6128;59.340;18.040;2023-09-30T07:31:36;5.93;;;2.40;;
12129;SDS011;6128;59.340;18.040;2023-09-30T07:34:03;5.87;;;3.40;;
12129;SDS011;6128;59.340;18.040;2023-09-30T07:36:30;7.77;;;2.90;;
12129;SDS011;6128;59.340;18.040;2023-09-30T07:38:58;6.87;;;2.67;;
12129;SDS011;6128;59.340;18.040;2023-09-30T07:41:26;8.50;;;2.70;;
12129;SDS011;6128;59.340;18.040;2023-09-30T07:43:53;4.70;;;2.20;;
12129;SDS011;6128;59.340;18.040;2023-09-30T07:46:20;6.53;;;2.90;;
12129;SDS011;6128;59.340;18.040;2023-09-30T07:48:47;6.80;;;2.73;;
12129;SDS011;6128;59.340;18.040;2023-09-30T07:51:14;6.37;;;2.47;;
12129;SDS011;6128;59.340;18.040;2023-09-30T07:53:41;8.63;;;2.67;;
12129;SDS011;6128;59.340;18.040;2023-09-30T07:56:09;6.23;;;2.63;;
12129;SDS011;6128;59.340;18.040;2023-09-30T07:58:36;6.43;;;2.33;;
12129;SDS011;6128;59.340;18.040;2023-09-30T08:01:03;6.00;;;2.10;;
12129;SDS011;6128;59.340;18.040;2023-09-30T08:03:30;8.00;;;2.40;;
12129;SDS011;6128;59.340;18.040;2023-09-30T08:05:59;7.43;;;2.80;;
12129;SDS011;6128;59.340;18.040;2023-09-30T08:08:26;7.43;;;2.93;;
12129;SDS011;6128;59.340;18.040;2023-09-30T08:10:54;5.87;;;2.00;;
12129;SDS011;6128;59.340;18.040;2023-09-30T08:13:23;6.50;;;2.27;;
12129;SDS011;6128;59.340;18.040;2023-09-30T08:15:50;7.23;;;2.77;;
12129;SDS011;6128;59.340;18.040;2023-09-30T08:18:18;5.30;;;2.17;;
12129;SDS011;6128;59.340;18.040;2023-09-30T08:20:45;8.80;;;2.83;;
12129;SDS011;6128;59.340;18.040;2023-09-30T08:23:14;6.27;;;2.80;;
12129;SDS011;6128;59.340;18.040;2023-09-30T08:25:41;10.67;;;2.50;;
12129;SDS011;6128;59.340;18.040;2023-09-30T08:28:09;6.47;;;2.37;;
12129;SDS011;6128;59.340;18.040;2023-09-30T08:30:37;7.57;;;2.40;;
12129;SDS011;6128;59.340;18.040;2023-09-30T08:33:05;7.73;;;2.70;;
12129;SDS011;6128;59.340;18.040;2023-09-30T08:35:34;7.20;;;2.73;;
12129;SDS011;6128;59.340;18.040;2023-09-30T08:38:02;5.17;;;2.43;;
12129;SDS011;6128;59.340;18.040;2023-09-30T08:40:30;8.03;;;2.60;;
12129;SDS011;6128;59.340;18.040;2023-09-30T08:42:57;7.10;;;2.20;;
12129;SDS011;6128;59.340;18.040;2023-09-30T08:45:27;8.60;;;3.17;;
12129;SDS011;6128;59.340;18.040;2023-09-30T08:47:56;8.50;;;2.83;;
12129;SDS011;6128;59.340;18.040;2023-09-30T08:50:29;7.70;;;2.60;;
12129;SDS011;6128;59.340;18.040;2023-09-30T08:52:57;8.00;;;3.17;;
12129;SDS011;6128;59.340;18.040;2023-09-30T08:55:24;7.17;;;2.83;;
12129;SDS011;6128;59.340;18.040;2023-09-30T08:57:53;7.13;;;2.80;;
12129;SDS011;6128;59.340;18.040;2023-09-30T09:00:22;6.70;;;2.40;;
12129;SDS011;6128;59.340;18.040;2023-09-30T09:02:49;9.33;;;3.37;;
12129;SDS011;6128;59.340;18.040;2023-09-30T09:05:18;7.87;;;3.00;;
12129;SDS011;6128;59.340;18.040;2023-09-30T09:07:46;6.93;;;2.73;;
12129;SDS011;6128;59.340;18.040;2023-09-30T09:10:13;8.37;;;2.87;;
12129;SDS011;6128;59.340;18.040;2023-09-30T09:12:40;7.63;;;2.43;;
12129;SDS011;6128;59.340;18.040;2023-09-30T09:15:08;7.30;;;2.57;;
12129;SDS011;6128;59.340;18.040;2023-09-30T09:17:46;7.50;;;2.77;;
12129;SDS011;6128;59.340;18.040;2023-09-30T09:20:16;6.17;;;2.77;;
12129;SDS011;6128;59.340;18.040;2023-09-30T09:22:46;8.90;;;2.73;;
12129;SDS011;6128;59.340;18.040;2023-09-30T09:25:16;8.20;;;2.97;;
12129;SDS011;6128;59.340;18.040;2023-09-30T09:27:43;8.90;;;2.60;;
12129;SDS011;6128;59.340;18.040;2023-09-30T09:30:17;9.03;;;3.30;;
12129;SDS011;6128;59.340;18.040;2023-09-30T09:32:54;6.07;;;2.33;;
12129;SDS011;6128;59.340;18.040;2023-09-30T09:35:27;5.60;;;2.47;;
12129;SDS011;6128;59.340;18.040;2023-09-30T09:37:59;6.87;;;2.80;;
12129;SDS011;6128;59.340;18.040;2023-09-30T09:40:27;7.30;;;2.33;;
12129;SDS011;6128;59.340;18.040;2023-09-30T09:42:56;6.63;;;2.60;;
12129;SDS011;6128;59.340;18.040;2023-09-30T09:45:25;8.70;;;2.50;;
12129;SDS011;6128;59.340;18.040;2023-09-30T09:47:53;6.87;;;2.23;;
12129;SDS011;6128;59.340;18.040;2023-09-30T09:50:21;5.47;;;2.10;;
12129;SDS011;6128;59.340;18.040;2023-09-30T09:52:50;6.00;;;2.43;;
12129;SDS011;6128;59.340;18.040;2023-09-30T09:55:20;7.13;;;2.40;;
12129;SDS011;6128;59.340;18.040;2023-09-30T09:57:48;6.73;;;2.50;;
12129;SDS011;6128;59.340;18.040;2023-09-30T10:00:16;5.50;;;2.13;;
12129;SDS011;6128;59.340;18.040;2023-09-30T10:02:44;6.83;;;2.87;;
12129;SDS011;6128;59.340;18.040;2023-09-30T10:05:12;6.07;;;2.10;;
12129;SDS011;6128;59.340;18.040;2023-09-30T10:07:42;7.53;;;2.60;;
12129;SDS011;6128;59.340;18.040;2023-09-30T10:10:17;4.77;;;2.00;;
12129;SDS011;6128;59.340;18.040;2023-09-30T10:12:46;5.53;;;2.00;;
12129;SDS011;6128;59.340;18.040;2023-09-30T10:18:05;5.97;;;1.93;;
12129;SDS011;6128;59.340;18.040;2023-09-30T10:20:33;6.83;;;2.50;;
12129;SDS011;6128;59.340;18.040;2023-09-30T10:25:53;7.03;;;2.20;;
12129;SDS011;6128;59.340;18.040;2023-09-30T10:28:36;6.60;;;2.23;;
12129;SDS011;6128;59.340;18.040;2023-09-30T10:31:11;6.50;;;2.10;;
12129;SDS011;6128;59.340;18.040;2023-09-30T10:36:47;7.27;;;2.10;;
12129;SDS011;6128;59.340;18.040;2023-09-30T10:39:19;6.97;;;2.00;;
12129;SDS011;6128;59.340;18.040;2023-09-30T10:51:00;5.77;;;2.20;;
12129;SDS011;6128;59.340;18.040;2023-09-30T10:53:40;6.37;;;2.67;;
12129;SDS011;6128;59.340;18.040;2023-09-30T10:56:12;4.27;;;2.37;;
12129;SDS011;6128;59.340;18.040;2023-09-30T10:58:44;8.47;;;2.43;;
12129;SDS011;6128;59.340;18.040;2023-09-30T11:01:13;5.73;;;2.30;;
12129;SDS011;6128;59.340;18.040;2023-09-30T11:03:41;6.73;;;2.77;;
12129;SDS011;6128;59.340;18.040;2023-09-30T11:06:10;5.03;;;2.20;;
12129;SDS011;6128;59.340;18.040;2023-09-30T11:08:44;7.30;;;2.10;;
12129;SDS011;6128;59.340;18.040;2023-09-30T11:11:16;5.57;;;2.37;;
12129;SDS011;6128;59.340;18.040;2023-09-30T11:13:45;7.10;;;2.50;;
12129;SDS011;6128;59.340;18.040;2023-09-30T11:16:12;6.00;;;2.00;;
12129;SDS011;6128;59.340;18.040;2023-09-30T11:18:39;5.93;;;2.27;;
12129;SDS011;6128;59.340;18.040;2023-09-30T11:21:06;5.17;;;1.97;;
12129;SDS011;6128;59.340;18.040;2023-09-30T11:23:34;5.53;;;2.03;;
12129;SDS011;6128;59.340;18.040;2023-09-30T11:26:02;6.37;;;2.33;;
12129;SDS011;6128;59.340;18.040;2023-09-30T11:28:36;6.67;;;1.97;;
12129;SDS011;6128;59.340;18.040;2023-09-30T11:31:07;6.00;;;1.83;;
12129;SDS011;6128;59.340;18.040;2023-09-30T11:33:46;4.70;;;2.00;;
12129;SDS011;6128;59.340;18.040;2023-09-30T11:36:17;4.37;;;1.80;;
12129;SDS011;6128;59.340;18.040;2023-09-30T11:38:45;3.73;;;1.67;;
12129;SDS011;6128;59.340;18.040;2023-09-30T11:41:13;6.00;;;2.13;;
12129;SDS011;6128;59.340;18.040;2023-09-30T11:43:57;7.27;;;1.80;;
12129;SDS011;6128;59.340;18.040;2023-09-30T11:46:28;3.60;;;1.53;;
12129;SDS011;6128;59.340;18.040;2023-09-30T11:48:58;5.43;;;1.80;;
12129;SDS011;6128;59.340;18.040;2023-09-30T11:51:27;7.13;;;1.87;;
12129;SDS011;6128;59.340;18.040;2023-09-30T11:53:55;6.80;;;2.00;;
12129;SDS011;6128;59.340;18.040;2023-09-30T11:56:23;4.30;;;1.60;;
12129;SDS011;6128;59.340;18.040;2023-09-30T11:58:54;4.63;;;1.40;;
12129;SDS011;6128;59.340;18.040;2023-09-30T12:01:22;5.13;;;1.67;;
12129;SDS011;6128;59.340;18.040;2023-09-30T12:03:52;6.90;;;1.60;;
12129;SDS011;6128;59.340;18.040;2023-09-30T12:06:21;4.70;;;1.60;;
12129;SDS011;6128;59.340;18.040;2023-09-30T12:08:49;4.53;;;2.03;;
12129;SDS011;6128;59.340;18.040;2023-09-30T12:11:17;4.57;;;1.30;;
12129;SDS011;6128;59.340;18.040;2023-09-30T12:13:44;2.17;;;0.83;;
12129;SDS011;6128;59.340;18.040;2023-09-30T12:16:14;3.40;;;1.13;;
12129;SDS011;6128;59.340;18.040;2023-09-30T12:18:41;2.70;;;0.90;;
12129;SDS011;6128;59.340;18.040;2023-09-30T12:21:10;2.50;;;0.80;;
12129;SDS011;6128;59.340;18.040;2023-09-30T12:23:38;5.03;;;1.30;;
12129;SDS011;6128;59.340;18.040;2023-09-30T12:26:06;2.53;;;1.10;;
12129;SDS011;6128;59.340;18.040;2023-09-30T12:28:34;2.67;;;1.10;;
12129;SDS011;6128;59.340;18.040;2023-09-30T12:31:01;2.67;;;0.77;;
12129;SDS011;6128;59.340;18.040;2023-09-30T12:33:29;2.60;;;0.90;;
12129;SDS011;6128;59.340;18.040;2023-09-30T12:35:57;1.80;;;0.80;;
12129;SDS011;6128;59.340;18.040;2023-09-30T12:38:26;3.27;;;1.07;;
12129;SDS011;6128;59.340;18.040;2023-09-30T12:40:54;3.00;;;1.00;;
12129;SDS011;6128;59.340;18.040;2023-09-30T12:43:21;1.83;;;0.50;;
12129;SDS011;6128;59.340;18.040;2023-09-30T12:45:49;3.90;;;0.90;;
12129;SDS011;6128;59.340;18.040;2023-09-30T12:48:16;2.30;;;1.00;;
12129;SDS011;6128;59.340;18.040;2023-09-30T12:50:43;2.93;;;1.17;;
12129;SDS011;6128;59.340;18.040;2023-09-30T12:53:10;3.60;;;0.83;;
12129;SDS011;6128;59.340;18.040;2023-09-30T12:55:38;2.30;;;0.90;;
12129;SDS011;6128;59.340;18.040;2023-09-30T12:58:07;1.60;;;0.70;;
12129;SDS011;6128;59.340;18.040;2023-09-30T13:00:34;4.13;;;0.87;;
12129;SDS011;6128;59.340;18.040;2023-09-30T13:03:02;3.13;;;1.10;;
12129;SDS011;6128;59.340;18.040;2023-09-30T13:05:29;2.63;;;0.70;;
12129;SDS011;6128;59.340;18.040;2023-09-30T13:07:57;3.73;;;0.83;;
12129;SDS011;6128;59.340;18.040;2023-09-30T13:10:24;2.87;;;0.77;;
12129;SDS011;6128;59.340;18.040;2023-09-30T13:12:52;3.33;;;0.90;;
12129;SDS011;6128;59.340;18.040;2023-09-30T13:15:20;2.97;;;0.73;;
12129;SDS011;6128;59.340;18.040;2023-09-30T13:17:49;2.93;;;1.20;;
12129;SDS011;6128;59.340;18.040;2023-09-30T13:20:16;1.90;;;0.90;;
12129;SDS011;6128;59.340;18.040;2023-09-30T13:22:43;3.37;;;0.90;;
12129;SDS011;6128;59.340;18.040;2023-09-30T13:25:10;2.83;;;0.90;;
12129;SDS011;6128;59.340;18.040;2023-09-30T13:27:38;2.30;;;0.83;;
12129;SDS011;6128;59.340;18.040;2023-09-30T13:30:07;3.70;;;1.13;;
12129;SDS011;6128;59.340;18.040;2023-09-30T13:32:35;2.87;;;1.00;;
12129;SDS011;6128;59.340;18.040;2023-09-30T13:35:02;2.40;;;0.80;;
12129;SDS011;6128;59.340;18.040;2023-09-30T13:37:30;4.13;;;1.13;;
12129;SDS011;6128;59.340;18.040;2023-09-30T13:39:58;2.40;;;0.90;;
12129;SDS011;6128;59.340;18.040;2023-09-30T13:42:27;1.87;;;0.80;;
12129;SDS011;6128;59.340;18.040;2023-09-30T13:44:55;2.87;;;0.70;;
12129;SDS011;6128;59.340;18.040;2023-09-30T13:47:25;2.40;;;0.90;;
12129;SDS011;6128;59.340;18.040;2023-09-30T13:49:52;3.80;;;1.00;;
12129;SDS011;6128;59.340;18.040;2023-09-30T13:52:20;1.70;;;0.70;;
12129;SDS011;6128;59.340;18.040;2023-09-30T13:54:47;3.37;;;1.40;;
12129;SDS011;6128;59.340;18.040;2023-09-30T13:57:14;4.37;;;0.90;;
12129;SDS011;6128;59.340;18.040;2023-09-30T13:59:41;2.53;;;0.80;;
12129;SDS011;6128;59.340;18.040;2023-09-30T14:02:08;4.87;;;0.90;;
12129;SDS011;6128;59.340;18.040;2023-09-30T14:04:37;2.43;;;1.07;;
12129;SDS011;6128;59.340;18.040;2023-09-30T14:07:04;2.07;;;0.67;;
12129;SDS011;6128;59.340;18.040;2023-09-30T14:09:33;4.13;;;1.00;;
12129;SDS011;6128;59.340;18.040;2023-09-30T14:12:00;2.10;;;0.80;;
12129;SDS011;6128;59.340;18.040;2023-09-30T14:14:30;2.87;;;1.10;;
12129;SDS011;6128;59.340;18.040;2023-09-30T14:16:58;2.93;;;0.80;;
12129;SDS011;6128;59.340;18.040;2023-09-30T14:19:32;3.17;;;0.87;;
12129;SDS011;6128;59.340;18.040;2023-09-30T14:22:01;2.77;;;0.90;;
12129;SDS011;6128;59.340;18.040;2023-09-30T14:24:29;3.57;;;0.70;;
12129;SDS011;6128;59.340;18.040;2023-09-30T14:26:57;5.37;;;1.30;;
12129;SDS011;6128;59.340;18.040;2023-09-30T14:29:24;2.87;;;0.90;;
12129;SDS011;6128;59.340;18.040;2023-09-30T14:31:51;2.77;;;0.93;;
12129;SDS011;6128;59.340;18.040;2023-09-30T14:34:18;2.30;;;0.80;;
12129;SDS011;6128;59.340;18.040;2023-09-30T14:36:45;2.00;;;0.67;;
12129;SDS011;6128;59.340;18.040;2023-09-30T14:39:14;2.07;;;0.70;;
12129;SDS011;6128;59.340;18.040;2023-09-30T14:41:41;2.30;;;0.80;;
12129;SDS011;6128;59.340;18.040;2023-09-30T14:44:08;3.97;;;1.50;;
12129;SDS011;6128;59.340;18.040;2023-09-30T14:46:37;2.30;;;0.80;;
12129;SDS011;6128;59.340;18.040;2023-09-30T14:49:04;2.87;;;0.93;;
12129;SDS011;6128;59.340;18.040;2023-09-30T14:51:32;1.90;;;0.60;;
12129;SDS011;6128;59.340;18.040;2023-09-30T14:53:59;1.87;;;0.70;;
12129;SDS011;6128;59.340;18.040;2023-09-30T14:56:28;1.30;;;0.70;;
12129;SDS011;6128;59.340;18.040;2023-09-30T14:58:55;3.67;;;1.03;;
12129;SDS011;6128;59.340;18.040;2023-09-30T15:01:22;2.13;;;0.80;;
12129;SDS011;6128;59.340;18.040;2023-09-30T15:03:51;2.47;;;0.90;;
12129;SDS011;6128;59.340;18.040;2023-09-30T15:06:18;3.47;;;0.90;;
12129;SDS011;6128;59.340;18.040;2023-09-30T15:08:46;2.33;;;0.80;;
12129;SDS011;6128;59.340;18.040;2023-09-30T15:11:13;2.83;;;0.73;;
12129;SDS011;6128;59.340;18.040;2023-09-30T15:13:42;4.83;;;1.07;;